sensor_id;sensor_type;location;lat;lon;timestamp;P1;durP1;ratioP1;P2;durP2;ratioP2
12042;SDS011;6082;49.306;12.862;2023-06-10T00:00:45;5.30;;;3.60;;
12042;SDS011;6082;49.306;12.862;2023-06-10T00:03:11;6.83;;;3.17;;
12042;SDS011;6082;49.306;12.862;2023-06-10T00:05:40;4.60;;;3.13;;
12042;SDS011;6082;49.306;12.862;2023-06-10T00:08:06;6.13;;;3.27;;
12042;SDS011;6082;49.306;12.862;2023-06-10T00:10:36;5.13;;;3.60;;
12042;SDS011;6082;49.306;12.862;2023-06-10T00:13:04;3.90;;;3.20;;
12042;SDS011;6082;49.306;12.862;2023-06-10T00:15:30;3.97;;;3.20;;
12042;SDS011;6082;49.306;12.862;2023-06-10T00:17:56;5.33;;;3.60;;
12042;SDS011;6082;49.306;12.862;2023-06-10T00:20:22;5.00;;;3.40;;
12042;SDS011;6082;49.306;12.862;2023-06-10T00:22:49;7.67;;;3.37;;
12042;SDS011;6082;49.306;12.862;2023-06-10T00:25:15;8.50;;;3.37;;
12042;SDS011;6082;49.306;12.862;2023-06-10T00:27:41;5.03;;;3.37;;
12042;SDS011;6082;49.306;12.862;2023-06-10T00:30:07;7.20;;;3.30;;
12042;SDS011;6082;49.306;12.862;2023-06-10T00:32:33;5.83;;;3.27;;
12042;SDS011;6082;49.306;12.862;2023-06-10T00:34:59;5.97;;;3.07;;
12042;SDS011;6082;49.306;12.862;2023-06-10T00:37:25;4.73;;;3.23;;
12042;SDS011;6082;49.306;12.862;2023-06-10T00:39:51;4.23;;;3.10;;
12042;SDS011;6082;49.306;12.862;2023-06-10T00:42:18;5.00;;;3.43;;
12042;SDS011;6082;49.306;12.862;2023-06-10T00:44:44;3.60;;;2.63;;
12042;SDS011;6082;49.306;12.862;2023-06-10T00:47:13;5.47;;;3.50;;
12042;SDS011;6082;49.306;12.862;2023-06-10T00:50:12;5.83;;;3.67;;
12042;SDS011;6082;49.306;12.862;2023-06-10T00:52:38;4.37;;;3.20;;
12042;SDS011;6082;49.306;12.862;2023-06-10T00:55:04;6.70;;;3.40;;
12042;SDS011;6082;49.306;12.862;2023-06-10T00:57:30;4.03;;;3.27;;
12042;SDS011;6082;49.306;12.862;2023-06-10T00:59:57;6.00;;;3.63;;
12042;SDS011;6082;49.306;12.862;2023-06-10T01:02:23;6.00;;;4.07;;
12042;SDS011;6082;49.306;12.862;2023-06-10T01:04:49;6.10;;;4.27;;
12042;SDS011;6082;49.306;12.862;2023-06-10T01:07:17;5.93;;;4.10;;
12042;SDS011;6082;49.306;12.862;2023-06-10T01:10:19;6.90;;;3.90;;
12042;SDS011;6082;49.306;12.862;2023-06-10T01:15:31;5.47;;;3.53;;
12042;SDS011;6082;49.306;12.862;2023-06-10T01:18:02;5.70;;;3.80;;
12042;SDS011;6082;49.306;12.862;2023-06-10T01:20:34;4.57;;;2.73;;
12042;SDS011;6082;49.306;12.862;2023-06-10T01:23:05;5.17;;;3.53;;
12042;SDS011;6082;49.306;12.862;2023-06-10T01:25:31;5.30;;;3.73;;
12042;SDS011;6082;49.306;12.862;2023-06-10T01:33:47;4.90;;;4.03;;
12042;SDS011;6082;49.306;12.862;2023-06-10T01:36:16;6.30;;;3.90;;
12042;SDS011;6082;49.306;12.862;2023-06-10T01:38:44;5.47;;;3.60;;
12042;SDS011;6082;49.306;12.862;2023-06-10T01:41:12;5.87;;;3.80;;
12042;SDS011;6082;49.306;12.862;2023-06-10T01:43:42;6.10;;;4.30;;
12042;SDS011;6082;49.306;12.862;2023-06-10T01:46:09;7.30;;;4.40;;
12042;SDS011;6082;49.306;12.862;2023-06-10T01:48:36;7.67;;;4.43;;
12042;SDS011;6082;49.306;12.862;2023-06-10T01:51:03;8.63;;;3.90;;
12042;SDS011;6082;49.306;12.862;2023-06-10T01:53:29;6.87;;;4.60;;
12042;SDS011;6082;49.306;12.862;2023-06-10T01:55:55;5.23;;;3.87;;
12042;SDS011;6082;49.306;12.862;2023-06-10T01:58:21;6.90;;;4.40;;
12042;SDS011;6082;49.306;12.862;2023-06-10T02:00:46;7.23;;;4.00;;
12042;SDS011;6082;49.306;12.862;2023-06-10T02:03:12;6.27;;;4.37;;
12042;SDS011;6082;49.306;12.862;2023-06-10T02:05:38;6.57;;;3.90;;
12042;SDS011;6082;49.306;12.862;2023-06-10T02:08:04;8.13;;;4.47;;
12042;SDS011;6082;49.306;12.862;2023-06-10T02:10:30;6.87;;;4.20;;
12042;SDS011;6082;49.306;12.862;2023-06-10T02:12:56;6.87;;;4.57;;
12042;SDS011;6082;49.306;12.862;2023-06-10T02:15:22;7.30;;;4.20;;
12042;SDS011;6082;49.306;12.862;2023-06-10T02:17:47;9.97;;;4.67;;
12042;SDS011;6082;49.306;12.862;2023-06-10T02:20:19;8.20;;;4.40;;
12042;SDS011;6082;49.306;12.862;2023-06-10T02:22:45;7.17;;;4.13;;
12042;SDS011;6082;49.306;12.862;2023-06-10T02:25:12;7.20;;;4.53;;
12042;SDS011;6082;49.306;12.862;2023-06-10T02:27:37;7.43;;;4.07;;
12042;SDS011;6082;49.306;12.862;2023-06-10T02:30:03;6.90;;;4.27;;
12042;SDS011;6082;49.306;12.862;2023-06-10T02:32:30;8.53;;;4.47;;
12042;SDS011;6082;49.306;12.862;2023-06-10T02:34:55;7.20;;;4.30;;
12042;SDS011;6082;49.306;12.862;2023-06-10T02:37:21;6.47;;;4.30;;
12042;SDS011;6082;49.306;12.862;2023-06-10T02:39:47;6.57;;;4.13;;
12042;SDS011;6082;49.306;12.862;2023-06-10T02:42:12;7.70;;;4.50;;
12042;SDS011;6082;49.306;12.862;2023-06-10T02:44:38;7.63;;;4.13;;
12042;SDS011;6082;49.306;12.862;2023-06-10T02:47:04;6.40;;;4.10;;
12042;SDS011;6082;49.306;12.862;2023-06-10T02:49:30;8.10;;;4.20;;
12042;SDS011;6082;49.306;12.862;2023-06-10T02:51:56;6.73;;;4.37;;
12042;SDS011;6082;49.306;12.862;2023-06-10T02:54:22;6.23;;;3.93;;
12042;SDS011;6082;49.306;12.862;2023-06-10T02:56:48;5.43;;;4.07;;
12042;SDS011;6082;49.306;12.862;2023-06-10T02:59:14;8.00;;;4.30;;
12042;SDS011;6082;49.306;12.862;2023-06-10T03:01:40;6.00;;;4.23;;
12042;SDS011;6082;49.306;12.862;2023-06-10T03:04:07;6.37;;;4.60;;
12042;SDS011;6082;49.306;12.862;2023-06-10T03:06:33;7.70;;;5.10;;
12042;SDS011;6082;49.306;12.862;2023-06-10T03:09:00;6.63;;;4.77;;
12042;SDS011;6082;49.306;12.862;2023-06-10T03:11:26;7.00;;;4.87;;
12042;SDS011;6082;49.306;12.862;2023-06-10T03:13:52;8.90;;;5.03;;
12042;SDS011;6082;49.306;12.862;2023-06-10T03:16:21;7.10;;;4.93;;
12042;SDS011;6082;49.306;12.862;2023-06-10T03:18:46;8.07;;;4.87;;
12042;SDS011;6082;49.306;12.862;2023-06-10T03:21:14;7.13;;;5.07;;
12042;SDS011;6082;49.306;12.862;2023-06-10T03:23:40;7.57;;;5.20;;
12042;SDS011;6082;49.306;12.862;2023-06-10T03:26:09;10.23;;;4.47;;
12042;SDS011;6082;49.306;12.862;2023-06-10T03:28:36;8.03;;;5.33;;
12042;SDS011;6082;49.306;12.862;2023-06-10T03:31:02;11.30;;;4.73;;
12042;SDS011;6082;49.306;12.862;2023-06-10T03:33:28;7.67;;;5.00;;
12042;SDS011;6082;49.306;12.862;2023-06-10T03:35:54;7.80;;;4.70;;
12042;SDS011;6082;49.306;12.862;2023-06-10T03:38:19;8.27;;;5.03;;
12042;SDS011;6082;49.306;12.862;2023-06-10T03:40:45;7.67;;;5.20;;
12042;SDS011;6082;49.306;12.862;2023-06-10T03:43:11;8.50;;;5.70;;
12042;SDS011;6082;49.306;12.862;2023-06-10T03:45:37;8.57;;;5.13;;
12042;SDS011;6082;49.306;12.862;2023-06-10T03:48:03;8.73;;;5.20;;
12042;SDS011;6082;49.306;12.862;2023-06-10T03:50:29;8.93;;;5.17;;
12042;SDS011;6082;49.306;12.862;2023-06-10T03:52:55;8.50;;;5.50;;
12042;SDS011;6082;49.306;12.862;2023-06-10T03:55:21;9.47;;;5.43;;
12042;SDS011;6082;49.306;12.862;2023-06-10T03:57:48;7.70;;;5.73;;
12042;SDS011;6082;49.306;12.862;2023-06-10T04:00:15;8.87;;;5.60;;
12042;SDS011;6082;49.306;12.862;2023-06-10T04:02:42;7.70;;;5.40;;
12042;SDS011;6082;49.306;12.862;2023-06-10T04:05:13;7.10;;;5.17;;
12042;SDS011;6082;49.306;12.862;2023-06-10T04:07:40;8.40;;;5.10;;
12042;SDS011;6082;49.306;12.862;2023-06-10T04:10:08;8.63;;;5.10;;
12042;SDS011;6082;49.306;12.862;2023-06-10T04:12:35;8.70;;;5.40;;
12042;SDS011;6082;49.306;12.862;2023-06-10T04:15:01;10.57;;;5.83;;
12042;SDS011;6082;49.306;12.862;2023-06-10T04:17:27;9.07;;;5.80;;
12042;SDS011;6082;49.306;12.862;2023-06-10T04:19:53;8.13;;;5.13;;
12042;SDS011;6082;49.306;12.862;2023-06-10T04:22:20;8.33;;;5.60;;
12042;SDS011;6082;49.306;12.862;2023-06-10T04:24:45;8.17;;;5.60;;
12042;SDS011;6082;49.306;12.862;2023-06-10T04:27:11;9.40;;;5.70;;
12042;SDS011;6082;49.306;12.862;2023-06-10T04:29:37;7.17;;;5.20;;
12042;SDS011;6082;49.306;12.862;2023-06-10T04:32:03;11.23;;;6.40;;
12042;SDS011;6082;49.306;12.862;2023-06-10T04:34:32;10.73;;;5.50;;
12042;SDS011;6082;49.306;12.862;2023-06-10T04:36:58;9.17;;;5.90;;
12042;SDS011;6082;49.306;12.862;2023-06-10T04:39:24;9.07;;;5.23;;
12042;SDS011;6082;49.306;12.862;2023-06-10T04:41:50;8.10;;;5.60;;
12042;SDS011;6082;49.306;12.862;2023-06-10T04:44:16;10.43;;;5.60;;
12042;SDS011;6082;49.306;12.862;2023-06-10T04:46:41;8.53;;;5.67;;
12042;SDS011;6082;49.306;12.862;2023-06-10T04:49:07;12.43;;;5.77;;
12042;SDS011;6082;49.306;12.862;2023-06-10T04:51:33;9.60;;;5.77;;
12042;SDS011;6082;49.306;12.862;2023-06-10T04:53:59;9.17;;;5.83;;
12042;SDS011;6082;49.306;12.862;2023-06-10T04:56:28;12.00;;;6.20;;
12042;SDS011;6082;49.306;12.862;2023-06-10T04:58:56;10.37;;;6.00;;
12042;SDS011;6082;49.306;12.862;2023-06-10T05:01:22;8.20;;;5.30;;
12042;SDS011;6082;49.306;12.862;2023-06-10T05:03:48;8.07;;;5.70;;
12042;SDS011;6082;49.306;12.862;2023-06-10T05:06:14;9.57;;;6.57;;
12042;SDS011;6082;49.306;12.862;2023-06-10T05:08:40;8.17;;;6.10;;
12042;SDS011;6082;49.306;12.862;2023-06-10T05:11:06;11.67;;;6.40;;
12042;SDS011;6082;49.306;12.862;2023-06-10T05:13:32;9.47;;;6.57;;
12042;SDS011;6082;49.306;12.862;2023-06-10T05:15:58;9.47;;;6.47;;
12042;SDS011;6082;49.306;12.862;2023-06-10T05:18:23;9.67;;;6.07;;
12042;SDS011;6082;49.306;12.862;2023-06-10T05:20:49;12.83;;;6.27;;
12042;SDS011;6082;49.306;12.862;2023-06-10T05:23:16;9.27;;;6.10;;
12042;SDS011;6082;49.306;12.862;2023-06-10T05:25:41;11.07;;;6.47;;
12042;SDS011;6082;49.306;12.862;2023-06-10T05:28:07;9.53;;;5.93;;
12042;SDS011;6082;49.306;12.862;2023-06-10T05:30:35;10.43;;;6.80;;
12042;SDS011;6082;49.306;12.862;2023-06-10T05:33:01;8.17;;;5.90;;
12042;SDS011;6082;49.306;12.862;2023-06-10T05:35:28;8.40;;;6.03;;
12042;SDS011;6082;49.306;12.862;2023-06-10T05:37:53;9.37;;;6.00;;
12042;SDS011;6082;49.306;12.862;2023-06-10T05:40:19;10.60;;;6.03;;
12042;SDS011;6082;49.306;12.862;2023-06-10T05:42:45;10.33;;;6.10;;
12042;SDS011;6082;49.306;12.862;2023-06-10T05:45:11;9.07;;;6.67;;
12042;SDS011;6082;49.306;12.862;2023-06-10T05:47:37;9.47;;;6.23;;
12042;SDS011;6082;49.306;12.862;2023-06-10T05:50:02;11.33;;;7.17;;
12042;SDS011;6082;49.306;12.862;2023-06-10T05:52:32;9.47;;;6.40;;
12042;SDS011;6082;49.306;12.862;2023-06-10T05:54:58;11.07;;;6.23;;
12042;SDS011;6082;49.306;12.862;2023-06-10T05:57:24;10.13;;;6.33;;
12042;SDS011;6082;49.306;12.862;2023-06-10T05:59:51;11.43;;;6.93;;
12042;SDS011;6082;49.306;12.862;2023-06-10T06:02:17;12.33;;;6.50;;
12042;SDS011;6082;49.306;12.862;2023-06-10T06:04:43;10.73;;;7.10;;
12042;SDS011;6082;49.306;12.862;2023-06-10T06:07:08;9.03;;;6.50;;
12042;SDS011;6082;49.306;12.862;2023-06-10T06:09:34;10.40;;;6.73;;
12042;SDS011;6082;49.306;12.862;2023-06-10T06:12:00;8.53;;;6.07;;
12042;SDS011;6082;49.306;12.862;2023-06-10T06:14:26;8.63;;;5.60;;
12042;SDS011;6082;49.306;12.862;2023-06-10T06:16:52;9.00;;;6.00;;
12042;SDS011;6082;49.306;12.862;2023-06-10T06:19:17;9.37;;;6.17;;
12042;SDS011;6082;49.306;12.862;2023-06-10T06:21:43;9.27;;;5.63;;
12042;SDS011;6082;49.306;12.862;2023-06-10T06:24:09;8.50;;;6.17;;
12042;SDS011;6082;49.306;12.862;2023-06-10T06:26:34;9.77;;;5.97;;
12042;SDS011;6082;49.306;12.862;2023-06-10T06:29:00;8.03;;;5.87;;
12042;SDS011;6082;49.306;12.862;2023-06-10T06:31:26;8.10;;;5.93;;
12042;SDS011;6082;49.306;12.862;2023-06-10T06:33:51;7.70;;;5.13;;
12042;SDS011;6082;49.306;12.862;2023-06-10T06:36:18;8.90;;;6.10;;
12042;SDS011;6082;49.306;12.862;2023-06-10T06:38:44;8.00;;;5.93;;
12042;SDS011;6082;49.306;12.862;2023-06-10T06:41:10;9.13;;;6.20;;
12042;SDS011;6082;49.306;12.862;2023-06-10T06:43:35;7.57;;;5.77;;
12042;SDS011;6082;49.306;12.862;2023-06-10T06:46:01;9.27;;;5.93;;
12042;SDS011;6082;49.306;12.862;2023-06-10T06:48:27;7.23;;;5.60;;
12042;SDS011;6082;49.306;12.862;2023-06-10T06:50:53;6.40;;;5.10;;
12042;SDS011;6082;49.306;12.862;2023-06-10T06:53:18;7.20;;;5.77;;
12042;SDS011;6082;49.306;12.862;2023-06-10T06:55:47;7.83;;;5.77;;
12042;SDS011;6082;49.306;12.862;2023-06-10T06:58:13;8.73;;;5.93;;
12042;SDS011;6082;49.306;12.862;2023-06-10T07:00:39;8.77;;;6.10;;
12042;SDS011;6082;49.306;12.862;2023-06-10T07:03:05;7.90;;;5.47;;
12042;SDS011;6082;49.306;12.862;2023-06-10T07:05:30;7.80;;;5.40;;
12042;SDS011;6082;49.306;12.862;2023-06-10T07:07:56;8.03;;;5.63;;
12042;SDS011;6082;49.306;12.862;2023-06-10T07:10:22;7.70;;;5.90;;
12042;SDS011;6082;49.306;12.862;2023-06-10T07:12:49;8.33;;;5.70;;
12042;SDS011;6082;49.306;12.862;2023-06-10T07:15:15;8.00;;;6.13;;
12042;SDS011;6082;49.306;12.862;2023-06-10T07:17:41;8.37;;;5.40;;
12042;SDS011;6082;49.306;12.862;2023-06-10T07:20:07;8.00;;;5.73;;
12042;SDS011;6082;49.306;12.862;2023-06-10T07:22:33;10.97;;;5.87;;
12042;SDS011;6082;49.306;12.862;2023-06-10T07:24:58;9.13;;;5.63;;
12042;SDS011;6082;49.306;12.862;2023-06-10T07:27:24;6.80;;;5.67;;
12042;SDS011;6082;49.306;12.862;2023-06-10T07:29:50;9.30;;;5.90;;
12042;SDS011;6082;49.306;12.862;2023-06-10T07:32:16;8.97;;;5.77;;
12042;SDS011;6082;49.306;12.862;2023-06-10T07:34:42;7.83;;;5.83;;
12042;SDS011;6082;49.306;12.862;2023-06-10T07:37:08;8.57;;;5.77;;
12042;SDS011;6082;49.306;12.862;2023-06-10T07:39:34;6.43;;;4.80;;
12042;SDS011;6082;49.306;12.862;2023-06-10T07:42:00;7.87;;;6.03;;
12042;SDS011;6082;49.306;12.862;2023-06-10T07:44:26;6.73;;;5.40;;
12042;SDS011;6082;49.306;12.862;2023-06-10T07:46:52;8.37;;;5.90;;
12042;SDS011;6082;49.306;12.862;2023-06-10T07:49:17;8.00;;;5.90;;
12042;SDS011;6082;49.306;12.862;2023-06-10T07:51:43;7.23;;;5.77;;
12042;SDS011;6082;49.306;12.862;2023-06-10T07:54:09;6.97;;;5.60;;
12042;SDS011;6082;49.306;12.862;2023-06-10T07:56:37;10.20;;;6.23;;
12042;SDS011;6082;49.306;12.862;2023-06-10T07:59:03;9.93;;;6.80;;
12042;SDS011;6082;49.306;12.862;2023-06-10T08:01:28;8.33;;;6.80;;
12042;SDS011;6082;49.306;12.862;2023-06-10T08:03:55;8.03;;;6.33;;
12042;SDS011;6082;49.306;12.862;2023-06-10T08:06:21;8.83;;;6.33;;
12042;SDS011;6082;49.306;12.862;2023-06-10T08:08:46;9.30;;;7.33;;
12042;SDS011;6082;49.306;12.862;2023-06-10T08:11:12;8.73;;;6.67;;
12042;SDS011;6082;49.306;12.862;2023-06-10T08:13:39;9.40;;;7.27;;
12042;SDS011;6082;49.306;12.862;2023-06-10T08:16:05;10.20;;;7.77;;
12042;SDS011;6082;49.306;12.862;2023-06-10T08:18:32;10.93;;;8.17;;
12042;SDS011;6082;49.306;12.862;2023-06-10T08:20:59;10.47;;;8.47;;
12042;SDS011;6082;49.306;12.862;2023-06-10T08:23:25;9.70;;;8.00;;
12042;SDS011;6082;49.306;12.862;2023-06-10T08:25:51;9.17;;;7.50;;
12042;SDS011;6082;49.306;12.862;2023-06-10T08:28:20;10.97;;;6.87;;
12042;SDS011;6082;49.306;12.862;2023-06-10T08:30:46;8.30;;;6.97;;
12042;SDS011;6082;49.306;12.862;2023-06-10T08:33:12;10.30;;;6.90;;
12042;SDS011;6082;49.306;12.862;2023-06-10T08:35:38;9.30;;;7.20;;
12042;SDS011;6082;49.306;12.862;2023-06-10T08:38:03;8.77;;;7.13;;
12042;SDS011;6082;49.306;12.862;2023-06-10T08:40:29;9.93;;;7.57;;
12042;SDS011;6082;49.306;12.862;2023-06-10T08:43:15;8.80;;;6.93;;
12042;SDS011;6082;49.306;12.862;2023-06-10T08:45:46;10.90;;;7.73;;
12042;SDS011;6082;49.306;12.862;2023-06-10T08:48:14;9.37;;;7.23;;
12042;SDS011;6082;49.306;12.862;2023-06-10T08:50:44;8.90;;;7.77;;
12042;SDS011;6082;49.306;12.862;2023-06-10T08:53:10;8.00;;;6.97;;
12042;SDS011;6082;49.306;12.862;2023-06-10T08:55:42;9.30;;;7.00;;
12042;SDS011;6082;49.306;12.862;2023-06-10T08:58:09;9.43;;;6.90;;
12042;SDS011;6082;49.306;12.862;2023-06-10T09:00:37;10.33;;;7.23;;
12042;SDS011;6082;49.306;12.862;2023-06-10T09:03:04;8.47;;;7.13;;
12042;SDS011;6082;49.306;12.862;2023-06-10T09:05:33;13.37;;;6.80;;
12042;SDS011;6082;49.306;12.862;2023-06-10T09:07:59;7.80;;;6.30;;
12042;SDS011;6082;49.306;12.862;2023-06-10T09:10:26;8.53;;;6.83;;
12042;SDS011;6082;49.306;12.862;2023-06-10T09:12:52;8.60;;;6.63;;
12042;SDS011;6082;49.306;12.862;2023-06-10T09:15:18;9.40;;;6.20;;
12042;SDS011;6082;49.306;12.862;2023-06-10T09:17:44;7.37;;;5.80;;
12042;SDS011;6082;49.306;12.862;2023-06-10T09:20:10;8.40;;;6.67;;
12042;SDS011;6082;49.306;12.862;2023-06-10T09:22:36;7.90;;;5.97;;
12042;SDS011;6082;49.306;12.862;2023-06-10T09:25:06;8.57;;;6.50;;
12042;SDS011;6082;49.306;12.862;2023-06-10T09:30:33;5.77;;;4.80;;
12042;SDS011;6082;49.306;12.862;2023-06-10T09:33:00;6.60;;;5.70;;
12042;SDS011;6082;49.306;12.862;2023-06-10T09:35:28;6.67;;;5.23;;
12042;SDS011;6082;49.306;12.862;2023-06-10T09:37:55;5.27;;;4.47;;
12042;SDS011;6082;49.306;12.862;2023-06-10T09:40:23;6.97;;;5.70;;
12042;SDS011;6082;49.306;12.862;2023-06-10T09:42:53;6.23;;;4.93;;
12042;SDS011;6082;49.306;12.862;2023-06-10T09:45:20;6.63;;;5.17;;
12042;SDS011;6082;49.306;12.862;2023-06-10T09:47:46;6.60;;;5.40;;
12042;SDS011;6082;49.306;12.862;2023-06-10T09:50:13;6.10;;;4.90;;
12042;SDS011;6082;49.306;12.862;2023-06-10T09:52:38;6.43;;;4.77;;
12042;SDS011;6082;49.306;12.862;2023-06-10T09:55:07;5.93;;;4.90;;
12042;SDS011;6082;49.306;12.862;2023-06-10T09:57:33;6.33;;;4.87;;
12042;SDS011;6082;49.306;12.862;2023-06-10T10:00:04;6.20;;;4.90;;
12042;SDS011;6082;49.306;12.862;2023-06-10T10:02:30;6.03;;;4.37;;
12042;SDS011;6082;49.306;12.862;2023-06-10T10:05:03;6.50;;;4.83;;
12042;SDS011;6082;49.306;12.862;2023-06-10T10:07:31;5.67;;;4.43;;
12042;SDS011;6082;49.306;12.862;2023-06-10T10:09:57;5.77;;;4.60;;
12042;SDS011;6082;49.306;12.862;2023-06-10T10:12:23;4.40;;;4.00;;
12042;SDS011;6082;49.306;12.862;2023-06-10T10:14:51;4.30;;;3.90;;
12042;SDS011;6082;49.306;12.862;2023-06-10T10:17:20;4.43;;;3.83;;
12042;SDS011;6082;49.306;12.862;2023-06-10T10:19:50;4.93;;;4.07;;
12042;SDS011;6082;49.306;12.862;2023-06-10T10:22:29;3.73;;;3.23;;
12042;SDS011;6082;49.306;12.862;2023-06-10T10:25:28;4.00;;;3.60;;
12042;SDS011;6082;49.306;12.862;2023-06-10T10:27:57;3.90;;;3.40;;
12042;SDS011;6082;49.306;12.862;2023-06-10T10:30:30;5.03;;;3.87;;
12042;SDS011;6082;49.306;12.862;2023-06-10T10:35:50;4.23;;;3.60;;
12042;SDS011;6082;49.306;12.862;2023-06-10T10:38:16;5.10;;;3.67;;
12042;SDS011;6082;49.306;12.862;2023-06-10T10:40:43;4.80;;;3.70;;
12042;SDS011;6082;49.306;12.862;2023-06-10T10:43:10;3.77;;;3.37;;
12042;SDS011;6082;49.306;12.862;2023-06-10T10:45:37;4.50;;;3.50;;
12042;SDS011;6082;49.306;12.862;2023-06-10T10:48:07;4.13;;;3.50;;
12042;SDS011;6082;49.306;12.862;2023-06-10T10:50:37;3.40;;;3.10;;
12042;SDS011;6082;49.306;12.862;2023-06-10T10:53:04;3.50;;;3.20;;
12042;SDS011;6082;49.306;12.862;2023-06-10T10:55:31;4.10;;;3.30;;
12042;SDS011;6082;49.306;12.862;2023-06-10T10:57:58;4.63;;;3.80;;
12042;SDS011;6082;49.306;12.862;2023-06-10T11:00:34;4.33;;;3.70;;
12042;SDS011;6082;49.306;12.862;2023-06-10T11:05:31;3.93;;;3.53;;
12042;SDS011;6082;49.306;12.862;2023-06-10T11:07:57;4.33;;;3.93;;
12042;SDS011;6082;49.306;12.862;2023-06-10T11:10:30;6.03;;;4.13;;
12042;SDS011;6082;49.306;12.862;2023-06-10T11:12:56;4.90;;;4.27;;
12042;SDS011;6082;49.306;12.862;2023-06-10T11:15:23;4.43;;;4.00;;
12042;SDS011;6082;49.306;12.862;2023-06-10T11:18:06;4.23;;;3.70;;
12042;SDS011;6082;49.306;12.862;2023-06-10T11:23:48;3.57;;;3.23;;
12042;SDS011;6082;49.306;12.862;2023-06-10T11:31:29;4.47;;;3.23;;
12042;SDS011;6082;49.306;12.862;2023-06-10T11:34:03;4.70;;;3.33;;
12042;SDS011;6082;49.306;12.862;2023-06-10T11:36:30;5.93;;;3.50;;
12042;SDS011;6082;49.306;12.862;2023-06-10T11:38:57;3.43;;;3.13;;
12042;SDS011;6082;49.306;12.862;2023-06-10T11:41:28;4.27;;;3.07;;
12042;SDS011;6082;49.306;12.862;2023-06-10T11:43:56;3.23;;;2.80;;
12042;SDS011;6082;49.306;12.862;2023-06-10T11:46:26;3.20;;;2.50;;
12042;SDS011;6082;49.306;12.862;2023-06-10T11:48:53;2.80;;;2.60;;
12042;SDS011;6082;49.306;12.862;2023-06-10T11:51:20;3.60;;;2.83;;
12042;SDS011;6082;49.306;12.862;2023-06-10T11:53:49;3.30;;;3.00;;
12042;SDS011;6082;49.306;12.862;2023-06-10T11:56:22;3.77;;;3.20;;
12042;SDS011;6082;49.306;12.862;2023-06-10T11:58:53;3.03;;;2.70;;
12042;SDS011;6082;49.306;12.862;2023-06-10T12:01:22;3.73;;;3.10;;
12042;SDS011;6082;49.306;12.862;2023-06-10T12:09:30;3.50;;;3.07;;
12042;SDS011;6082;49.306;12.862;2023-06-10T12:11:59;3.97;;;2.80;;
12042;SDS011;6082;49.306;12.862;2023-06-10T12:19:49;4.50;;;3.57;;
12042;SDS011;6082;49.306;12.862;2023-06-10T12:22:16;4.17;;;3.53;;
12042;SDS011;6082;49.306;12.862;2023-06-10T12:24:45;4.23;;;3.67;;
12042;SDS011;6082;49.306;12.862;2023-06-10T12:27:28;4.30;;;3.87;;
12042;SDS011;6082;49.306;12.862;2023-06-10T12:29:54;4.97;;;4.43;;
12042;SDS011;6082;49.306;12.862;2023-06-10T12:32:34;7.00;;;5.40;;
12042;SDS011;6082;49.306;12.862;2023-06-10T12:35:05;5.97;;;4.80;;
12042;SDS011;6082;49.306;12.862;2023-06-10T12:37:32;6.10;;;4.90;;
12042;SDS011;6082;49.306;12.862;2023-06-10T12:40:02;7.77;;;4.83;;
12042;SDS011;6082;49.306;12.862;2023-06-10T12:42:31;11.60;;;6.30;;
12042;SDS011;6082;49.306;12.862;2023-06-10T12:45:00;7.10;;;5.20;;
12042;SDS011;6082;49.306;12.862;2023-06-10T12:47:33;6.17;;;5.13;;
12042;SDS011;6082;49.306;12.862;2023-06-10T12:50:00;4.90;;;4.40;;
12042;SDS011;6082;49.306;12.862;2023-06-10T12:52:27;5.63;;;4.70;;
12042;SDS011;6082;49.306;12.862;2023-06-10T12:54:55;6.50;;;5.13;;
12042;SDS011;6082;49.306;12.862;2023-06-10T12:57:21;5.87;;;5.10;;
12042;SDS011;6082;49.306;12.862;2023-06-10T12:59:48;5.30;;;4.70;;
12042;SDS011;6082;49.306;12.862;2023-06-10T13:02:22;6.30;;;4.90;;
12042;SDS011;6082;49.306;12.862;2023-06-10T13:04:52;8.40;;;4.80;;
12042;SDS011;6082;49.306;12.862;2023-06-10T13:07:18;6.37;;;4.90;;
12042;SDS011;6082;49.306;12.862;2023-06-10T13:09:44;5.67;;;4.80;;
12042;SDS011;6082;49.306;12.862;2023-06-10T13:12:13;6.17;;;5.10;;
12042;SDS011;6082;49.306;12.862;2023-06-10T13:14:39;8.07;;;4.93;;
12042;SDS011;6082;49.306;12.862;2023-06-10T13:17:05;9.53;;;5.50;;
12042;SDS011;6082;49.306;12.862;2023-06-10T13:19:32;5.57;;;5.03;;
12042;SDS011;6082;49.306;12.862;2023-06-10T13:21:58;7.47;;;5.60;;
12042;SDS011;6082;49.306;12.862;2023-06-10T13:24:24;7.10;;;6.00;;
12042;SDS011;6082;49.306;12.862;2023-06-10T13:26:49;9.53;;;6.40;;
12042;SDS011;6082;49.306;12.862;2023-06-10T13:29:15;9.57;;;6.43;;
12042;SDS011;6082;49.306;12.862;2023-06-10T13:31:41;6.67;;;5.93;;
12042;SDS011;6082;49.306;12.862;2023-06-10T13:34:07;6.80;;;6.03;;
12042;SDS011;6082;49.306;12.862;2023-06-10T13:36:33;7.47;;;6.40;;
12042;SDS011;6082;49.306;12.862;2023-06-10T13:38:59;5.47;;;4.83;;
12042;SDS011;6082;49.306;12.862;2023-06-10T13:41:24;6.77;;;4.90;;
12042;SDS011;6082;49.306;12.862;2023-06-10T13:43:52;7.80;;;5.10;;
12042;SDS011;6082;49.306;12.862;2023-06-10T13:46:18;7.77;;;5.07;;
12042;SDS011;6082;49.306;12.862;2023-06-10T13:48:46;6.53;;;5.20;;
12042;SDS011;6082;49.306;12.862;2023-06-10T13:51:12;7.80;;;5.93;;
12042;SDS011;6082;49.306;12.862;2023-06-10T13:53:38;6.03;;;5.27;;
12042;SDS011;6082;49.306;12.862;2023-06-10T13:56:04;6.33;;;5.40;;
12042;SDS011;6082;49.306;12.862;2023-06-10T13:58:30;6.93;;;5.43;;
12042;SDS011;6082;49.306;12.862;2023-06-10T14:00:56;8.17;;;6.10;;
12042;SDS011;6082;49.306;12.862;2023-06-10T14:03:23;8.07;;;5.43;;
12042;SDS011;6082;49.306;12.862;2023-06-10T14:05:49;7.80;;;5.63;;
12042;SDS011;6082;49.306;12.862;2023-06-10T14:08:15;6.37;;;5.23;;
12042;SDS011;6082;49.306;12.862;2023-06-10T14:10:40;7.07;;;4.67;;
12042;SDS011;6082;49.306;12.862;2023-06-10T14:13:06;6.33;;;4.53;;
12042;SDS011;6082;49.306;12.862;2023-06-10T14:15:32;7.30;;;4.43;;
12042;SDS011;6082;49.306;12.862;2023-06-10T14:17:58;5.63;;;4.60;;
12042;SDS011;6082;49.306;12.862;2023-06-10T14:20:23;6.30;;;4.73;;
12042;SDS011;6082;49.306;12.862;2023-06-10T14:22:51;6.50;;;5.10;;
12042;SDS011;6082;49.306;12.862;2023-06-10T14:25:17;6.70;;;5.10;;
12042;SDS011;6082;49.306;12.862;2023-06-10T14:27:43;7.00;;;5.10;;
12042;SDS011;6082;49.306;12.862;2023-06-10T14:30:09;6.63;;;5.23;;
12042;SDS011;6082;49.306;12.862;2023-06-10T14:32:35;5.97;;;4.27;;
12042;SDS011;6082;49.306;12.862;2023-06-10T14:35:00;5.67;;;5.03;;
12042;SDS011;6082;49.306;12.862;2023-06-10T14:37:27;5.70;;;5.00;;
12042;SDS011;6082;49.306;12.862;2023-06-10T14:39:52;7.80;;;4.93;;
12042;SDS011;6082;49.306;12.862;2023-06-10T14:42:18;6.07;;;5.13;;
12042;SDS011;6082;49.306;12.862;2023-06-10T14:44:44;7.10;;;5.23;;
12042;SDS011;6082;49.306;12.862;2023-06-10T14:47:10;6.27;;;5.03;;
12042;SDS011;6082;49.306;12.862;2023-06-10T14:49:35;7.93;;;5.30;;
12042;SDS011;6082;49.306;12.862;2023-06-10T14:52:01;6.70;;;4.97;;
12042;SDS011;6082;49.306;12.862;2023-06-10T14:54:27;6.57;;;5.57;;
12042;SDS011;6082;49.306;12.862;2023-06-10T14:56:53;5.70;;;4.90;;
12042;SDS011;6082;49.306;12.862;2023-06-10T14:59:18;6.80;;;4.70;;
12042;SDS011;6082;49.306;12.862;2023-06-10T15:01:44;5.50;;;4.77;;
12042;SDS011;6082;49.306;12.862;2023-06-10T15:04:10;5.97;;;5.00;;
12042;SDS011;6082;49.306;12.862;2023-06-10T15:06:36;6.00;;;5.17;;
12042;SDS011;6082;49.306;12.862;2023-06-10T15:09:01;6.37;;;5.53;;
12042;SDS011;6082;49.306;12.862;2023-06-10T15:11:27;6.93;;;5.87;;
12042;SDS011;6082;49.306;12.862;2023-06-10T15:13:53;6.37;;;5.40;;
12042;SDS011;6082;49.306;12.862;2023-06-10T15:16:18;6.53;;;5.33;;
12042;SDS011;6082;49.306;12.862;2023-06-10T15:18:44;6.80;;;5.43;;
12042;SDS011;6082;49.306;12.862;2023-06-10T15:21:10;6.37;;;5.60;;